createdAt,value
2023-03-31T00:01:54.326Z,1.03
2023-03-31T00:04:32.254Z,1.07
2023-03-31T00:07:08.171Z,0.80
2023-03-31T00:09:46.120Z,0.90
2023-03-31T00:12:21.891Z,0.80
2023-03-31T00:14:56.909Z,1.07
2023-03-31T00:17:33.151Z,1.10
2023-03-31T00:20:12.494Z,0.93
2023-03-31T00:22:47.632Z,0.90
2023-03-31T00:25:22.532Z,1.20
2023-03-31T00:27:58.026Z,1.00
2023-03-31T00:30:32.878Z,1.07
2023-03-31T00:33:09.426Z,0.97
2023-03-31T00:35:46.100Z,1.10
2023-03-31T00:38:22.088Z,1.30
2023-03-31T00:40:59.069Z,0.90
2023-03-31T00:43:37.262Z,1.03
2023-03-31T00:46:20.611Z,1.30
2023-03-31T00:48:57.897Z,1.20
2023-03-31T00:51:35.623Z,1.00
2023-03-31T00:54:11.696Z,1.00
2023-03-31T00:56:48.964Z,1.37
2023-03-31T00:59:28.185Z,1.23
2023-03-31T01:02:04.646Z,1.03
2023-03-31T01:04:46.487Z,1.40
2023-03-31T01:07:25.772Z,0.90
2023-03-31T01:10:04.831Z,0.90
2023-03-31T01:12:44.424Z,1.10
2023-03-31T01:15:19.711Z,1.10
2023-03-31T01:17:55.943Z,1.20
2023-03-31T01:21:10.145Z,1.23
2023-03-31T01:24:08.467Z,1.00
2023-03-31T01:27:27.975Z,1.00
2023-03-31T01:30:37.397Z,0.90
2023-03-31T01:34:03.531Z,1.10
2023-03-31T01:37:14.658Z,0.97
2023-03-31T01:40:10.536Z,1.30
2023-03-31T01:42:57.667Z,1.10
2023-03-31T01:46:00.703Z,1.10
2023-03-31T01:48:44.890Z,1.10
2023-03-31T01:51:37.591Z,1.37
2023-03-31T01:54:28.287Z,1.30
2023-03-31T01:57:28.485Z,1.30
2023-03-31T02:00:18.203Z,0.90
2023-03-31T02:03:19.302Z,1.10
2023-03-31T02:05:58.980Z,1.30
2023-03-31T02:08:44.273Z,1.00
2023-03-31T02:11:20.288Z,0.70
2023-03-31T02:13:56.926Z,1.03
2023-03-31T02:16:34.739Z,0.80
2023-03-31T02:19:11.058Z,0.90
2023-03-31T02:21:51.400Z,0.80
2023-03-31T02:24:27.706Z,1.00
2023-03-31T02:27:28.400Z,1.00
2023-03-31T02:30:04.945Z,0.90
2023-03-31T02:32:46.623Z,1.10
2023-03-31T02:35:23.085Z,1.10
2023-03-31T02:37:58.922Z,1.33
2023-03-31T02:40:33.914Z,1.10
2023-03-31T02:43:08.756Z,1.13
2023-03-31T02:45:51.628Z,1.00
2023-03-31T02:48:29.631Z,1.10
2023-03-31T02:51:38.332Z,1.43
2023-03-31T02:55:04.690Z,0.97
2023-03-31T02:58:00.310Z,1.20
2023-03-31T03:01:01.815Z,1.47
2023-03-31T03:04:19.499Z,1.20
2023-03-31T03:07:15.289Z,1.33
2023-03-31T03:10:14.378Z,1.27
2023-03-31T03:13:18.021Z,1.20
2023-03-31T03:16:19.204Z,1.23
2023-03-31T03:19:03.865Z,1.60
2023-03-31T03:21:38.720Z,2.90
2023-03-31T03:24:16.933Z,1.40
2023-03-31T03:26:51.918Z,1.40
2023-03-31T03:29:27.618Z,1.60
2023-03-31T03:32:02.444Z,2.47
2023-03-31T03:34:37.916Z,1.10
2023-03-31T03:37:12.817Z,1.10
2023-03-31T03:39:47.680Z,1.33
2023-03-31T03:42:22.722Z,1.40
2023-03-31T03:44:57.574Z,1.40
2023-03-31T03:47:32.494Z,1.20
2023-03-31T03:50:08.405Z,1.27
2023-03-31T03:52:43.689Z,1.40
2023-03-31T03:55:18.559Z,1.40
2023-03-31T03:57:53.384Z,1.53
2023-03-31T04:00:28.238Z,1.50
2023-03-31T04:03:03.275Z,1.50
2023-03-31T04:05:38.472Z,1.30
2023-03-31T04:08:13.319Z,1.70
2023-03-31T04:10:49.818Z,1.50
2023-03-31T04:13:24.736Z,1.57
2023-03-31T04:15:59.625Z,1.40
2023-03-31T04:18:37.036Z,1.70
2023-03-31T04:21:15.461Z,1.30
2023-03-31T04:24:07.301Z,1.50
2023-03-31T04:26:43.351Z,1.80
2023-03-31T04:29:20.906Z,1.87
2023-03-31T04:31:59.196Z,1.80
2023-03-31T04:34:37.047Z,1.60
2023-03-31T04:37:11.941Z,1.90
2023-03-31T04:39:50.640Z,1.90
2023-03-31T04:42:25.710Z,1.90
2023-03-31T04:45:00.648Z,1.50
2023-03-31T04:47:35.605Z,2.00
2023-03-31T04:50:13.979Z,1.90
2023-03-31T04:52:50.357Z,1.97
2023-03-31T04:55:25.810Z,1.90
2023-03-31T04:58:01.746Z,1.80
2023-03-31T05:00:36.593Z,2.40
2023-03-31T05:03:12.021Z,2.20
2023-03-31T05:05:46.924Z,2.43
2023-03-31T05:08:21.791Z,1.80
2023-03-31T05:10:57.110Z,2.60
2023-03-31T05:13:32.345Z,2.47
2023-03-31T05:16:14.770Z,2.50
2023-03-31T05:18:49.789Z,2.63
2023-03-31T05:21:26.753Z,2.80
2023-03-31T05:24:01.573Z,2.40
2023-03-31T05:26:36.577Z,2.60
2023-03-31T05:29:11.432Z,2.43
2023-03-31T05:31:47.274Z,2.60
2023-03-31T05:34:22.194Z,2.67
2023-03-31T05:36:57.710Z,2.40
2023-03-31T05:39:33.121Z,3.00
2023-03-31T05:42:08.495Z,2.97
2023-03-31T05:44:43.346Z,3.07
2023-03-31T05:47:18.774Z,3.37
2023-03-31T05:49:53.655Z,3.00
2023-03-31T05:52:28.528Z,2.83
2023-03-31T05:55:04.437Z,2.90
2023-03-31T05:57:39.319Z,3.00
2023-03-31T06:00:15.176Z,3.63
2023-03-31T06:02:51.372Z,3.17
2023-03-31T06:05:26.896Z,2.80
2023-03-31T06:08:01.983Z,3.60
2023-03-31T06:10:38.841Z,3.57
2023-03-31T06:13:13.762Z,3.80
2023-03-31T06:16:00.316Z,3.90
2023-03-31T06:18:36.539Z,3.33
2023-03-31T06:21:16.272Z,3.33
2023-03-31T06:23:55.090Z,3.30
2023-03-31T06:26:36.091Z,3.20
2023-03-31T06:29:11.083Z,3.90
2023-03-31T06:31:45.964Z,3.47
2023-03-31T06:34:21.920Z,3.50
2023-03-31T06:36:56.952Z,3.50
2023-03-31T06:39:31.918Z,4.10
2023-03-31T06:42:07.224Z,3.17
2023-03-31T06:44:48.715Z,3.40
2023-03-31T06:47:23.702Z,4.53
2023-03-31T06:49:58.629Z,3.80
2023-03-31T06:52:33.483Z,4.27
2023-03-31T06:55:09.277Z,4.43
2023-03-31T06:57:44.199Z,4.10
2023-03-31T07:00:21.597Z,4.97
2023-03-31T07:02:58.290Z,5.20
2023-03-31T07:05:33.335Z,4.90
2023-03-31T07:08:08.237Z,5.07
2023-03-31T07:10:46.571Z,4.77
2023-03-31T07:13:21.450Z,3.40
2023-03-31T07:15:56.720Z,4.00
2023-03-31T07:18:35.574Z,3.87
2023-03-31T07:21:11.103Z,3.40
2023-03-31T07:23:46.233Z,2.87
2023-03-31T07:26:21.353Z,3.20
2023-03-31T07:28:57.381Z,2.93
2023-03-31T07:31:32.778Z,2.77
2023-03-31T07:34:07.796Z,2.20
2023-03-31T07:36:42.752Z,2.17
2023-03-31T07:39:17.834Z,2.10
2023-03-31T07:41:52.757Z,2.17
2023-03-31T07:44:27.595Z,1.70
2023-03-31T07:47:06.158Z,1.50
2023-03-31T07:49:41.083Z,1.63
2023-03-31T07:52:16.433Z,1.33
2023-03-31T07:54:51.553Z,1.37
2023-03-31T07:57:26.627Z,1.30
2023-03-31T08:00:05.939Z,1.10
2023-03-31T08:02:47.161Z,1.10
2023-03-31T08:05:22.135Z,1.00
2023-03-31T08:07:57.204Z,1.10
2023-03-31T08:10:32.240Z,0.80
2023-03-31T08:13:07.303Z,0.70
2023-03-31T08:15:42.291Z,0.80
2023-03-31T08:18:17.496Z,0.70
2023-03-31T08:20:52.512Z,0.70
2023-03-31T08:23:27.510Z,0.90
2023-03-31T08:26:21.837Z,1.10
2023-03-31T08:28:59.063Z,0.80
2023-03-31T08:31:34.043Z,0.80
2023-03-31T08:34:09.069Z,0.80
2023-03-31T08:36:44.106Z,0.90
2023-03-31T08:39:18.962Z,0.90
2023-03-31T08:42:16.533Z,0.80
2023-03-31T08:45:22.530Z,0.83
2023-03-31T08:48:30.915Z,1.20
2023-03-31T08:51:14.689Z,0.70
2023-03-31T08:54:21.794Z,0.80
2023-03-31T08:56:57.474Z,0.80
2023-03-31T08:59:34.850Z,0.90
2023-03-31T09:02:30.568Z,0.93
2023-03-31T09:05:27.462Z,1.00
2023-03-31T09:08:36.934Z,0.80
2023-03-31T09:11:33.218Z,0.83
2023-03-31T09:14:27.122Z,1.00
2023-03-31T09:17:29.924Z,1.00
2023-03-31T09:20:14.430Z,0.93
2023-03-31T09:23:27.023Z,1.10
2023-03-31T09:26:04.307Z,0.80
2023-03-31T09:28:40.805Z,0.80
2023-03-31T09:31:19.984Z,0.90
2023-03-31T09:34:01.570Z,0.90
2023-03-31T09:36:36.561Z,1.00
2023-03-31T09:39:14.839Z,0.77
2023-03-31T09:41:52.208Z,0.70
2023-03-31T09:44:39.291Z,1.10
2023-03-31T09:47:29.213Z,0.90
2023-03-31T09:50:04.796Z,0.90
2023-03-31T09:52:56.551Z,0.73
2023-03-31T09:55:56.952Z,0.80
2023-03-31T09:58:32.382Z,0.90
2023-03-31T10:01:09.914Z,0.80
2023-03-31T10:03:55.385Z,0.80
2023-03-31T10:06:30.846Z,0.80
2023-03-31T10:09:06.329Z,0.97
2023-03-31T10:11:54.916Z,0.80
2023-03-31T10:14:44.407Z,1.00
2023-03-31T10:17:24.918Z,1.00
2023-03-31T10:20:11.875Z,0.90
2023-03-31T10:22:47.158Z,0.80
2023-03-31T10:25:27.942Z,0.90
2023-03-31T10:28:03.395Z,0.80
2023-03-31T10:30:40.509Z,0.70
2023-03-31T10:33:25.024Z,0.80
2023-03-31T10:36:02.694Z,1.10
2023-03-31T10:38:43.545Z,0.90
2023-03-31T10:41:28.589Z,0.70
2023-03-31T10:44:04.936Z,0.70
2023-03-31T10:46:49.502Z,0.90
2023-03-31T10:49:28.398Z,1.10
2023-03-31T10:52:04.487Z,0.80
2023-03-31T10:54:48.414Z,0.80
2023-03-31T10:57:56.366Z,0.80
2023-03-31T11:00:56.572Z,0.80
2023-03-31T11:04:23.706Z,0.80
2023-03-31T11:07:29.375Z,0.90
2023-03-31T11:10:32.321Z,0.87
2023-03-31T11:13:26.250Z,0.80
2023-03-31T11:16:31.633Z,0.80
2023-03-31T11:19:45.522Z,0.80
2023-03-31T11:22:38.172Z,1.33
2023-03-31T11:25:39.901Z,0.90
2023-03-31T11:29:03.563Z,0.70
2023-03-31T11:32:16.246Z,0.90
2023-03-31T11:35:00.268Z,0.30
2023-03-31T11:38:13.007Z,0.50
2023-03-31T11:41:06.714Z,0.40
2023-03-31T11:43:56.652Z,0.53
2023-03-31T11:46:57.530Z,0.50
2023-03-31T11:49:39.098Z,0.40
2023-03-31T11:52:16.937Z,0.50
2023-03-31T11:55:04.434Z,0.40
2023-03-31T11:57:44.316Z,0.40
2023-03-31T12:01:03.318Z,0.43
2023-03-31T12:03:46.858Z,0.40
2023-03-31T12:06:28.017Z,0.40
2023-03-31T12:09:24.324Z,0.30
2023-03-31T12:12:21.342Z,0.50
2023-03-31T12:15:06.138Z,0.40
2023-03-31T12:17:45.866Z,0.37
2023-03-31T12:20:39.013Z,0.33
2023-03-31T12:23:23.007Z,0.40
2023-03-31T12:26:11.755Z,0.50
2023-03-31T12:28:47.868Z,0.47
2023-03-31T12:31:25.574Z,0.40
2023-03-31T12:34:13.839Z,0.53
2023-03-31T12:37:16.590Z,0.40
2023-03-31T12:40:18.613Z,0.60
2023-03-31T12:43:22.273Z,0.40
2023-03-31T12:46:31.240Z,0.57
2023-03-31T12:49:12.178Z,0.50
2023-03-31T12:52:04.513Z,0.40
2023-03-31T12:55:04.235Z,0.43
2023-03-31T12:57:39.236Z,0.60
2023-03-31T13:00:27.300Z,0.60
2023-03-31T13:03:34.006Z,0.60
2023-03-31T13:06:32.785Z,0.50
2023-03-31T13:09:33.394Z,0.53
2023-03-31T13:12:30.920Z,0.70
2023-03-31T13:15:13.676Z,0.80
2023-03-31T13:18:03.327Z,0.60
2023-03-31T13:20:42.122Z,1.00
2023-03-31T13:23:22.528Z,0.70
2023-03-31T13:25:59.199Z,0.60
2023-03-31T13:28:42.995Z,0.60
2023-03-31T13:31:18.145Z,0.50
2023-03-31T13:34:02.865Z,0.50
2023-03-31T13:36:54.776Z,0.40
2023-03-31T13:39:45.849Z,0.50
2023-03-31T13:42:58.574Z,0.37
2023-03-31T13:46:08.295Z,0.30
2023-03-31T13:49:20.296Z,0.40
2023-03-31T13:52:10.296Z,0.30
2023-03-31T13:55:13.536Z,0.30
2023-03-31T13:58:30.053Z,0.30
2023-03-31T14:01:32.228Z,0.37
2023-03-31T14:04:46.841Z,0.40
2023-03-31T14:07:31.694Z,0.40
2023-03-31T14:10:24.466Z,0.40
2023-03-31T14:13:06.498Z,0.50
2023-03-31T14:15:48.468Z,0.30
2023-03-31T14:18:31.017Z,0.40
2023-03-31T14:21:33.089Z,0.40
2023-03-31T14:24:22.469Z,0.40
2023-03-31T14:27:20.572Z,0.50
2023-03-31T14:30:35.431Z,0.40
2023-03-31T14:33:41.109Z,0.40
2023-03-31T14:36:52.705Z,0.40
2023-03-31T14:39:35.614Z,0.50
2023-03-31T14:42:17.866Z,0.40
2023-03-31T14:45:06.111Z,0.40
2023-03-31T14:47:41.115Z,0.40
2023-03-31T14:50:18.926Z,0.30
2023-03-31T14:52:53.843Z,0.33
2023-03-31T14:55:44.113Z,0.40
2023-03-31T14:58:34.938Z,0.40
2023-03-31T15:01:21.235Z,0.40
2023-03-31T15:03:56.403Z,0.50
2023-03-31T15:06:33.083Z,0.40
2023-03-31T15:09:16.668Z,0.93
2023-03-31T15:12:07.924Z,0.60
2023-03-31T15:14:52.486Z,0.43
2023-03-31T15:17:37.641Z,0.40
2023-03-31T15:20:29.528Z,0.40
2023-03-31T15:23:27.471Z,0.40
2023-03-31T15:26:08.828Z,0.47
2023-03-31T15:29:02.078Z,0.50
2023-03-31T15:31:37.124Z,0.80
2023-03-31T15:34:24.583Z,0.50
2023-03-31T15:37:01.060Z,0.50
2023-03-31T15:39:38.284Z,0.60
2023-03-31T15:42:13.523Z,0.50
2023-03-31T15:44:57.054Z,0.60
2023-03-31T15:47:38.589Z,0.70
2023-03-31T15:50:16.167Z,0.50
2023-03-31T15:52:54.430Z,0.40
2023-03-31T15:55:40.277Z,0.57
2023-03-31T15:58:16.842Z,0.60
2023-03-31T16:00:53.221Z,0.50
2023-03-31T16:03:38.640Z,0.50
2023-03-31T16:06:41.880Z,0.53
2023-03-31T16:09:52.725Z,0.57
2023-03-31T16:12:43.532Z,0.70
2023-03-31T16:15:38.167Z,0.60
2023-03-31T16:18:18.895Z,0.67
2023-03-31T16:20:57.165Z,0.60
2023-03-31T16:23:38.073Z,1.13
2023-03-31T16:26:13.220Z,0.57
2023-03-31T16:28:52.845Z,0.50
2023-03-31T16:31:41.498Z,0.63
2023-03-31T16:34:16.826Z,0.70
2023-03-31T16:36:51.810Z,0.40
2023-03-31T16:39:26.744Z,0.47
2023-03-31T16:42:04.084Z,0.60
2023-03-31T16:44:40.310Z,0.40
2023-03-31T16:50:11.652Z,0.40
2023-03-31T16:52:47.221Z,0.40
2023-03-31T16:55:22.234Z,0.40
2023-03-31T16:57:59.609Z,0.53
2023-03-31T17:00:36.207Z,0.50
2023-03-31T17:03:12.400Z,0.40
2023-03-31T17:05:52.737Z,0.50
2023-03-31T17:08:31.313Z,0.50
2023-03-31T17:11:11.029Z,0.47
2023-03-31T17:13:46.492Z,0.40
2023-03-31T17:16:29.776Z,0.37
2023-03-31T17:19:11.581Z,0.40
2023-03-31T17:21:46.712Z,0.40
2023-03-31T17:24:22.364Z,0.50
2023-03-31T17:26:57.681Z,0.40
2023-03-31T17:29:32.517Z,0.40
2023-03-31T17:32:07.586Z,0.47
2023-03-31T17:34:42.625Z,0.50
2023-03-31T17:37:19.590Z,0.50
2023-03-31T17:39:55.548Z,0.57
2023-03-31T17:42:31.414Z,0.70
2023-03-31T17:45:08.702Z,0.90
2023-03-31T17:47:45.106Z,0.80
2023-03-31T17:50:20.115Z,1.00
2023-03-31T17:52:55.598Z,0.60
2023-03-31T17:55:31.307Z,0.80
2023-03-31T17:58:08.415Z,0.80
2023-03-31T18:00:43.437Z,0.70
2023-03-31T18:03:18.425Z,0.60
2023-03-31T18:05:53.383Z,0.70
2023-03-31T18:08:29.944Z,0.70
2023-03-31T18:11:08.293Z,0.43
2023-03-31T18:13:43.430Z,0.50
2023-03-31T18:16:19.377Z,0.53
2023-03-31T18:18:54.409Z,0.67
2023-03-31T18:21:29.368Z,0.80
2023-03-31T18:24:04.369Z,0.70
2023-03-31T18:26:40.144Z,0.67
2023-03-31T18:29:15.841Z,0.90
2023-03-31T18:31:50.829Z,0.77
2023-03-31T18:34:25.837Z,0.60
2023-03-31T18:37:00.755Z,0.60
2023-03-31T18:39:35.833Z,0.80
2023-03-31T18:42:10.738Z,1.27
2023-03-31T18:44:46.400Z,0.70
2023-03-31T18:47:21.678Z,0.60
2023-03-31T18:49:57.549Z,0.70
2023-03-31T18:52:32.472Z,0.90
2023-03-31T18:55:08.007Z,0.80
2023-03-31T18:57:42.970Z,1.00
2023-03-31T19:00:18.821Z,0.80
2023-03-31T19:02:54.574Z,0.70
2023-03-31T19:05:30.624Z,0.80
2023-03-31T19:08:06.651Z,1.10
2023-03-31T19:10:41.767Z,0.90
2023-03-31T19:13:16.852Z,0.70
2023-03-31T19:15:51.980Z,0.80
2023-03-31T19:18:29.342Z,0.70
2023-03-31T19:21:05.278Z,0.80
2023-03-31T19:23:40.570Z,0.70
2023-03-31T19:26:19.427Z,0.87
2023-03-31T19:28:54.391Z,0.80
2023-03-31T19:31:29.440Z,0.73
2023-03-31T19:34:05.938Z,0.80
2023-03-31T19:36:40.950Z,0.90
2023-03-31T19:39:16.669Z,1.00
2023-03-31T19:41:51.617Z,1.00
2023-03-31T19:44:26.538Z,0.80
2023-03-31T19:47:01.634Z,0.80
2023-03-31T19:49:36.864Z,1.03
2023-03-31T19:52:11.865Z,0.70
2023-03-31T19:54:46.826Z,0.77
2023-03-31T19:57:21.805Z,1.03
2023-03-31T19:59:56.719Z,0.90
2023-03-31T20:02:31.658Z,0.80
2023-03-31T20:05:07.448Z,0.60
2023-03-31T20:07:42.390Z,0.80
2023-03-31T20:10:17.329Z,1.00
2023-03-31T20:12:52.212Z,0.60
2023-03-31T20:15:27.175Z,0.73
2023-03-31T20:18:02.604Z,0.80
2023-03-31T20:20:38.071Z,0.70
2023-03-31T20:23:12.996Z,1.00
2023-03-31T20:25:48.482Z,0.97
2023-03-31T20:28:23.379Z,0.77
2023-03-31T20:30:58.244Z,0.87
2023-03-31T20:33:33.137Z,0.67
2023-03-31T20:36:14.012Z,0.60
2023-03-31T20:38:51.338Z,0.70
2023-03-31T20:41:28.619Z,0.87
2023-03-31T20:44:05.889Z,0.80
2023-03-31T20:46:42.206Z,0.90
2023-03-31T20:49:17.076Z,0.57
2023-03-31T20:51:51.961Z,0.90
2023-03-31T20:54:27.200Z,0.80
2023-03-31T20:57:05.649Z,0.70
2023-03-31T20:59:40.737Z,0.90
2023-03-31T21:02:16.196Z,0.80
2023-03-31T21:04:52.494Z,0.80
2023-03-31T21:07:27.326Z,1.10
2023-03-31T21:10:02.538Z,0.73
2023-03-31T21:12:37.937Z,0.80
2023-03-31T21:15:13.234Z,0.80
2023-03-31T21:17:48.147Z,0.70
2023-03-31T21:20:22.993Z,0.60
2023-03-31T21:22:57.969Z,0.80
2023-03-31T21:25:33.218Z,0.50
2023-03-31T21:28:08.513Z,0.70
2023-03-31T21:31:01.648Z,0.80
2023-03-31T21:33:39.569Z,0.60
2023-03-31T21:36:17.993Z,0.53
2023-03-31T21:38:53.959Z,0.60
2023-03-31T21:41:31.072Z,0.60
2023-03-31T21:44:06.504Z,0.60
2023-03-31T21:46:41.428Z,0.60
2023-03-31T21:49:17.352Z,0.63
2023-03-31T21:51:53.298Z,0.90
2023-03-31T21:54:28.236Z,0.50
2023-03-31T21:57:03.603Z,0.60
2023-03-31T21:59:39.809Z,0.60
2023-03-31T22:02:14.654Z,0.60
2023-03-31T22:04:49.748Z,0.60
2023-03-31T22:07:24.711Z,0.50
2023-03-31T22:09:59.561Z,0.73
2023-03-31T22:12:34.510Z,0.63
2023-03-31T22:15:10.856Z,0.70
2023-03-31T22:17:45.981Z,0.70
2023-03-31T22:20:21.005Z,0.70
2023-03-31T22:22:56.357Z,0.60
2023-03-31T22:25:31.524Z,0.60
2023-03-31T22:28:07.480Z,0.50
2023-03-31T22:30:43.076Z,0.60
2023-03-31T22:33:17.928Z,0.50
2023-03-31T22:35:52.867Z,0.40
2023-03-31T22:38:27.760Z,0.60
2023-03-31T22:41:02.831Z,0.57
2023-03-31T22:43:37.797Z,0.60
2023-03-31T22:46:12.880Z,0.40
2023-03-31T22:48:51.192Z,0.40
2023-03-31T22:51:27.037Z,0.50
2023-03-31T22:54:01.894Z,0.53
2023-03-31T22:56:36.945Z,0.37
2023-03-31T22:59:12.097Z,0.40
2023-03-31T23:01:52.782Z,0.50
2023-03-31T23:04:28.033Z,0.50
2023-03-31T23:07:02.994Z,0.40
2023-03-31T23:09:37.856Z,0.50
2023-03-31T23:12:12.733Z,0.50
2023-03-31T23:14:47.635Z,0.40
2023-03-31T23:17:22.759Z,0.37
2023-03-31T23:19:57.600Z,0.50
2023-03-31T23:22:33.968Z,0.40
2023-03-31T23:25:09.067Z,0.40
2023-03-31T23:27:43.923Z,0.40
2023-03-31T23:30:18.787Z,0.47
2023-03-31T23:32:55.205Z,0.40
2023-03-31T23:35:30.538Z,0.40
2023-03-31T23:38:06.170Z,0.40
2023-03-31T23:40:41.163Z,0.30
2023-03-31T23:43:16.599Z,0.47
2023-03-31T23:45:52.534Z,0.50
2023-03-31T23:48:27.383Z,0.40
2023-03-31T23:51:03.057Z,0.50
2023-03-31T23:53:38.135Z,0.40
2023-03-31T23:56:13.529Z,0.40
2023-03-31T23:58:48.390Z,0.40
